Seekonk, MA (02771)

10:33 AM EDT on September 19, 2014 (GMT -0400)
Rumford | Change Station
CLOSE
Current Station
Personal Weather Station
Location: East Providence, RI
Elevation: 65 ft
Nearby Weather Stations

Elev 65 ft 41.85 °N, 71.35 °W | Updated 7 minutes ago

Partly Cloudy
Partly Cloudy
53.6 °F
Feels Like 53.6 °F
N
8.0
Wind Variable Wind from North
Gusts 10.0 mph

Today
High -- | Low -- °F
--% Chance of Precip.
Yesterday
High -- | Low -- °F
Precip. -- in
6:29 AM 6:47 PM
Waning Crescent, 19% visible
Pressure 30.38 in
Visibility 10.0 miles
Clouds Few 4000 ft
Few 25000 ft
Dew Point 37 °F
Humidity 54%
Rainfall 0.00 in
Snow Depth Not available.
UV 3.7 out of 12
Pollen 3.60 out of 12
Ozone Good
PM2.5 Good
Flu Activity Not available.
METAR KPVD 191351Z 03011KT 10SM FEW040 FEW250 13/02 A3038 RMK AO2 SLP286 T01280022

More Conditions Fewer Conditions

Pressure 30.38 in
Visibility 10.0 miles
Clouds Few 4000 ft
Few 25000 ft
Dew Point 37 °F
Humidity 54%
Rainfall 0.00 in
Snow Depth Not available.
UV 3.7 out of 12
Pollen 3.60 out of 12
Ozone Good
PM2.5 Good
Flu Activity Not available.
METAR KPVD 191351Z 03011KT 10SM FEW040 FEW250 13/02 A3038 RMK AO2 SLP286 T01280022

More Conditions Fewer Conditions

10-Day Weather Forecast

Almanac

Astronomy

Sep. 19, 2014 Rise Set
Actual Time 6:29 AM EDT 6:47 PM EDT
Civil Twilight 6:01 AM EDT 7:15 PM EDT
Nautical Twilight 5:28 AM EDT 7:48 PM EDT
Astronomical Twilight 4:55 AM EDT 8:21 PM EDT
Moon 2:08 AM EDT 4:17 PM EDT
Length of Visible Light 13h 13m
Length of Day
12h 18m
Tomorrow will be 2m 47s shorter.
Waning Crescent, 19% of the Moon is Illuminated
Today
Waning Crescent
Sep 24
New
Oct 1
First Quarter
Oct 8
Full
Oct 15
Last Quarter

Today's Extremes

State Highs State Lows

Community

WunderPhotos

Upload Photos

1,754,624 photos uploaded!

Nearby

Air Quality

  Air Quality AQ Index Pollutant
Yesterday Good
OZONE
Yesterday Good
PM2.5
Current Good
PM2.5
Current Good
OZONE
Friday Good
PM2.5
Friday Good
OZONE

Snow Depth

Station Depth Elevation
No new snow has been reported.

Earthquake Activity

City Distance Mag. Time & Date
No recent earthquake activity has been reported nearby.
Minimum magnitude displayed is 2.5.

Coastal Water Temperatures

Place Temperature
Newport, RI 66.0 °F
Quonset Point, RI 68.0 °F
Conimicut Light, RI 68.0 °F

Nearby Weather Stations